Time;durP1;ratioP1;P1;durP2;ratioP2;P2;SDS_P1;SDS_P2;PMS_P1;PMS_P2;Temp;Humidity;BMP_temperature;BMP_pressure;BME280_temperature;BME280_humidity;BME280_pressure;Samples;Min_cycle;Max_cycle;Signal;HPM_P1;HPM_P2
2023/07/05 00:02:13;;;;;;;8.03;4.23;;;;;;;14.61;93.57;97680.56;6239468;28;20713;-53
2023/07/05 00:05:16;;;;;;;8.13;4.53;;;;;;;14.56;93.79;97682.44;6243828;28;20600;-53
2023/07/05 00:08:18;;;;;;;4.77;4.33;;;;;;;14.46;93.75;97672.50;6241944;28;20266;-53
2023/07/05 00:11:20;;;;;;;6.33;4.73;;;;;;;14.26;94.25;97651.03;6242392;28;20242;-52
2023/07/05 00:14:22;;;;;;;5.87;4.37;;;;;;;14.32;94.84;97660.69;6238207;28;20729;-54
2023/07/05 00:17:24;;;;;;;6.53;4.20;;;;;;;14.28;95.08;97667.63;6240654;28;20245;-53
2023/07/05 00:20:27;;;;;;;5.97;4.47;;;;;;;14.25;95.54;97663.63;6237871;28;20235;-53
2023/07/05 00:23:31;;;;;;;7.67;4.60;;;;;;;14.23;95.86;97657.72;6243203;28;20638;-54
2023/07/05 00:26:33;;;;;;;7.00;4.33;;;;;;;14.19;95.79;97653.97;6240546;28;20234;-54
2023/07/05 00:29:35;;;;;;;7.37;4.27;;;;;;;14.15;96.12;97645.66;6240295;28;20759;-54
2023/07/05 00:32:37;;;;;;;6.00;4.50;;;;;;;14.13;96.57;97642.41;6240302;28;20236;-54
2023/07/05 00:35:50;;;;;;;7.23;4.70;;;;;;;14.11;96.52;97644.56;6229039;28;20255;-54
2023/07/05 00:38:53;;;;;;;4.93;4.07;;;;;;;14.11;96.49;97633.06;6241263;28;20256;-54
2023/07/05 00:41:56;;;;;;;6.33;4.47;;;;;;;14.01;96.30;97622.31;6241156;28;20235;-53
2023/07/05 00:45:10;;;;;;;12.33;4.53;;;;;;;14.12;96.51;97635.47;6240948;28;20318;-54
2023/07/05 00:48:15;;;;;;;5.23;3.97;;;;;;;14.15;96.33;97628.78;6243767;28;20223;-53
2023/07/05 00:51:55;;;;;;;5.67;3.93;;;;;;;14.16;96.08;97633.06;6237576;28;20747;-54
2023/07/05 00:54:59;;;;;;;4.97;4.00;;;;;;;14.19;95.96;97621.81;6243947;28;20321;-54
2023/07/05 00:58:03;;;;;;;4.33;3.73;;;;;;;14.12;95.85;97615.91;6245031;28;20235;-53
2023/07/05 01:01:05;;;;;;;4.13;3.73;;;;;;;14.24;95.86;97624.50;6245236;28;20608;-54
2023/07/05 01:04:09;;;;;;;4.27;3.63;;;;;;;14.22;95.76;97628.50;6242725;28;20711;-54
2023/07/05 01:07:11;;;;;;;4.63;3.60;;;;;;;14.19;95.69;97619.16;6245132;28;20227;-54
2023/07/05 01:10:26;;;;;;;4.67;3.73;;;;;;;14.20;95.88;97626.91;6249526;28;20650;-54
2023/07/05 01:13:36;;;;;;;5.30;4.30;;;;;;;14.11;95.30;97619.66;6275943;28;20239;-54
2023/07/05 01:17:13;;;;;;;5.30;3.83;;;;;;;14.07;95.14;97616.69;6247331;28;20235;-53
2023/07/05 01:20:39;;;;;;;6.30;4.33;;;;;;;14.03;95.52;97612.94;6260539;28;20235;-54
2023/07/05 01:24:09;;;;;;;6.13;3.97;;;;;;;13.94;95.26;97612.69;6243584;28;20289;-53
2023/07/05 01:27:23;;;;;;;6.33;4.30;;;;;;;13.87;95.97;97605.94;6242806;28;20261;-52
2023/07/05 01:30:43;;;;;;;5.27;4.10;;;;;;;13.82;96.30;97613.97;6242303;28;20686;-53
2023/07/05 01:34:01;;;;;;;6.80;4.20;;;;;;;13.78;96.32;97611.00;6244405;28;20595;-53
2023/07/05 01:37:08;;;;;;;5.07;4.10;;;;;;;13.75;96.56;97603.53;6245901;28;20372;-54
2023/07/05 01:40:39;;;;;;;5.07;4.10;;;;;;;13.74;96.69;97604.56;6274746;28;20330;-53
2023/07/05 01:43:45;;;;;;;5.70;4.43;;;;;;;13.75;96.79;97608.88;6246627;28;20581;-53
2023/07/05 01:47:03;;;;;;;6.67;4.50;;;;;;;13.73;97.18;97604.84;6276532;28;20241;-54
2023/07/05 01:50:05;;;;;;;8.10;4.60;;;;;;;13.71;97.18;97602.44;6257857;28;20727;-53
2023/07/05 01:53:32;;;;;;;6.57;4.27;;;;;;;13.66;97.20;97605.91;6238852;28;20322;-53
2023/07/05 01:57:06;;;;;;;5.40;4.00;;;;;;;13.64;97.21;97600.03;6241112;28;20600;-53
2023/07/05 02:00:17;;;;;;;4.40;3.87;;;;;;;13.62;97.29;97602.13;6244463;28;20238;-53
2023/07/05 02:03:23;;;;;;;7.13;4.10;;;;;;;13.63;97.39;97605.63;6242874;28;20212;-54
2023/07/05 02:06:27;;;;;;;5.20;3.97;;;;;;;13.50;97.49;97590.06;6245703;28;20227;-54
2023/07/05 02:09:30;;;;;;;8.37;4.43;;;;;;;13.57;98.37;97610.16;6242679;28;20222;-54
2023/07/05 02:12:33;;;;;;;5.67;4.30;;;;;;;13.50;98.39;97601.56;6244844;28;20238;-53
2023/07/05 02:15:37;;;;;;;5.33;3.93;;;;;;;13.47;98.62;97595.94;6242335;28;20255;-54
2023/07/05 02:18:40;;;;;;;5.13;4.10;;;;;;;13.43;98.54;97590.28;6239920;28;20232;-54
2023/07/05 02:21:43;;;;;;;4.97;3.77;;;;;;;13.39;98.68;97589.19;6242993;28;20234;-53
2023/07/05 02:24:46;;;;;;;5.57;3.80;;;;;;;13.37;99.29;97586.00;6244559;28;20229;-54
2023/07/05 02:27:48;;;;;;;9.23;4.03;;;;;;;13.30;99.16;97578.22;6244208;28;20307;-54
2023/07/05 02:30:51;;;;;;;6.03;4.40;;;;;;;13.34;99.80;97589.19;6242914;28;20238;-53
2023/07/05 02:33:56;;;;;;;5.47;3.80;;;;;;;13.33;99.78;97576.88;6242096;28;20247;-54
2023/07/05 02:36:59;;;;;;;6.97;3.90;;;;;;;13.32;99.41;97580.63;6244602;28;20222;-56
2023/07/05 02:40:03;;;;;;;6.03;3.70;;;;;;;13.29;99.52;97584.63;6242703;28;20231;-54
2023/07/05 02:43:05;;;;;;;4.27;3.87;;;;;;;13.27;99.55;97577.94;6240450;28;20235;-54
2023/07/05 02:46:08;;;;;;;6.00;3.80;;;;;;;13.28;99.87;97577.66;6242150;28;20442;-54
2023/07/05 02:49:10;;;;;;;6.20;4.03;;;;;;;13.28;99.41;97582.22;6242065;28;20407;-55
2023/07/05 02:52:13;;;;;;;7.40;3.93;;;;;;;13.28;99.50;97582.22;6243666;28;20235;-51
2023/07/05 02:55:15;;;;;;;4.63;3.60;;;;;;;13.32;99.76;97588.66;6239683;28;20232;-54
2023/07/05 02:58:18;;;;;;;4.87;3.67;;;;;;;13.34;99.51;97591.88;6245072;28;20231;-55
2023/07/05 03:01:20;;;;;;;5.33;3.70;;;;;;;13.31;99.03;97595.88;6242462;28;20242;-54
2023/07/05 03:04:22;;;;;;;4.33;3.63;;;;;;;13.30;99.12;97596.13;6241971;28;20227;-58
2023/07/05 03:07:24;;;;;;;3.67;3.33;;;;;;;13.28;99.25;97592.91;6242058;28;20223;-56
2023/07/05 03:10:26;;;;;;;4.73;3.43;;;;;;;13.27;98.90;97591.31;6241560;28;20355;-55
2023/07/05 03:13:31;;;;;;;7.10;4.13;;;;;;;13.07;99.14;97573.25;6242363;28;20228;-54
2023/07/05 03:16:33;;;;;;;4.33;3.30;;;;;;;13.07;98.97;97562.56;6247583;28;20245;-54
2023/07/05 03:19:37;;;;;;;5.47;3.90;;;;;;;13.26;99.17;97592.38;6241165;28;20271;-54
2023/07/05 03:22:39;;;;;;;4.10;3.00;;;;;;;13.16;98.79;97569.03;6239402;28;20231;-54
2023/07/05 03:25:51;;;;;;;5.67;3.30;;;;;;;13.26;98.91;97589.69;6242181;28;20228;-54
2023/07/05 03:28:54;;;;;;;4.07;3.40;;;;;;;13.26;98.79;97589.69;6253581;28;20695;-54
2023/07/05 03:31:56;;;;;;;3.33;2.77;;;;;;;13.29;99.04;97594.50;6241031;28;20239;-53
2023/07/05 03:35:00;;;;;;;3.70;3.00;;;;;;;13.31;99.01;97587.84;6242502;28;20235;-54
2023/07/05 03:38:02;;;;;;;3.90;3.20;;;;;;;13.35;98.84;97588.94;6240368;28;20376;-53
2023/07/05 03:41:18;;;;;;;4.23;3.40;;;;;;;13.31;98.43;97587.84;6241207;28;20239;-54
2023/07/05 03:44:22;;;;;;;4.63;3.43;;;;;;;13.12;98.38;97565.25;6241922;28;20234;-54
2023/07/05 03:47:26;;;;;;;4.67;3.50;;;;;;;13.23;98.76;97587.53;6238637;28;20293;-54
2023/07/05 03:50:28;;;;;;;3.67;3.23;;;;;;;13.22;98.64;97583.25;6240645;28;20243;-54
2023/07/05 03:53:30;;;;;;;4.17;3.10;;;;;;;13.26;98.75;97587.03;6239791;28;20238;-53
2023/07/05 03:56:34;;;;;;;5.40;3.70;;;;;;;13.27;99.05;97576.06;6242474;28;20326;-54
2023/07/05 03:59:36;;;;;;;5.53;4.03;;;;;;;13.11;99.49;97542.25;6241602;28;20381;-54
2023/07/05 04:02:38;;;;;;;6.53;3.73;;;;;;;13.37;99.50;97569.94;6240992;28;20854;-54
2023/07/05 04:05:41;;;;;;;4.67;3.60;;;;;;;13.51;100.00;97571.06;6240600;28;20989;-54
2023/07/05 04:08:43;;;;;;;5.10;3.97;;;;;;;13.46;100.00;97532.78;6242774;28;20710;-54
2023/07/05 04:11:46;;;;;;;7.07;4.27;;;;;;;13.77;100.00;97566.56;6239850;28;20226;-54
2023/07/05 04:14:48;;;;;;;4.40;3.20;;;;;;;13.91;100.00;97573.03;6237378;28;20312;-53
2023/07/05 04:17:50;;;;;;;4.47;4.03;;;;;;;14.01;100.00;97569.56;6241445;28;20235;-54
2023/07/05 04:20:52;;;;;;;4.60;3.70;;;;;;;14.12;100.00;97568.47;6241152;28;20239;-56
2023/07/05 04:23:55;;;;;;;4.70;4.20;;;;;;;14.18;100.00;97559.38;6241128;28;20608;-54
2023/07/05 04:26:58;;;;;;;4.90;3.70;;;;;;;14.34;100.00;97573.59;6237574;28;20246;-54
2023/07/05 04:30:00;;;;;;;4.83;3.93;;;;;;;14.43;99.85;97576.53;6239893;28;20231;-53
2023/07/05 04:33:04;;;;;;;5.30;3.73;;;;;;;14.53;99.65;97581.09;6228470;28;20250;-54
2023/07/05 04:36:07;;;;;;;4.07;3.63;;;;;;;14.61;99.92;97572.53;6247951;28;20626;-53
2023/07/05 04:39:27;;;;;;;4.63;3.77;;;;;;;14.67;99.63;97580.28;6244202;28;20323;-54
2023/07/05 04:42:29;;;;;;;7.50;4.13;;;;;;;14.77;99.60;97578.66;6247319;28;20231;-54
2023/07/05 04:45:31;;;;;;;5.57;4.40;;;;;;;14.85;99.34;97578.94;6245542;28;20227;-54
2023/07/05 04:48:34;;;;;;;5.60;4.23;;;;;;;14.93;99.21;97582.94;6245782;28;20235;-55
2023/07/05 04:51:36;;;;;;;6.57;4.47;;;;;;;15.03;99.13;97584.78;6241891;28;20226;-54
2023/07/05 04:54:38;;;;;;;4.90;4.30;;;;;;;15.09;98.56;97581.00;6242358;28;20763;-54
2023/07/05 04:57:42;;;;;;;6.40;4.87;;;;;;;15.22;98.60;97588.47;6246474;28;20350;-53
2023/07/05 05:00:51;;;;;;;8.23;4.30;;;;;;;15.28;98.03;97575.84;6246943;28;20239;-53
2023/07/05 05:03:54;;;;;;;5.77;4.73;;;;;;;15.39;98.60;97578.22;6243828;28;20243;-53
2023/07/05 05:06:56;;;;;;;7.90;4.47;;;;;;;15.49;98.62;97578.16;6244842;28;20227;-53
2023/07/05 05:09:59;;;;;;;7.30;4.37;;;;;;;15.59;98.30;97574.63;6246411;28;20227;-53
2023/07/05 05:13:02;;;;;;;4.87;4.13;;;;;;;15.65;97.92;97586.97;6243226;28;20234;-55
2023/07/05 05:16:05;;;;;;;5.13;4.27;;;;;;;15.76;97.63;97586.91;6243225;28;20228;-53
2023/07/05 05:19:07;;;;;;;6.27;4.63;;;;;;;15.81;97.71;97573.47;6245238;28;20236;-53
2023/07/05 05:22:11;;;;;;;5.33;3.67;;;;;;;16.01;97.23;97573.34;6243552;28;20266;-53
2023/07/05 05:25:13;;;;;;;6.77;4.73;;;;;;;16.04;96.75;97545.91;6243335;28;20635;-56
2023/07/05 05:28:16;;;;;;;5.80;4.70;;;;;;;16.29;96.61;97563.72;6243565;28;20231;-54
2023/07/05 05:31:18;;;;;;;4.43;4.03;;;;;;;16.31;95.49;97548.13;6242966;28;20238;-53
2023/07/05 05:34:20;;;;;;;5.20;4.17;;;;;;;16.62;95.14;97570.16;6244597;28;20232;-53
2023/07/05 05:37:23;;;;;;;5.00;4.10;;;;;;;16.87;94.16;97581.78;6244733;28;20327;-54
2023/07/05 05:40:25;;;;;;;5.03;3.80;;;;;;;17.07;93.09;97568.13;6243146;28;20240;-54
2023/07/05 05:43:27;;;;;;;7.67;4.90;;;;;;;17.26;92.64;97573.56;6243669;28;20300;-53
2023/07/05 05:46:29;;;;;;;5.67;4.03;;;;;;;17.36;92.45;97562.66;6242809;28;20717;-54
2023/07/05 05:49:32;;;;;;;5.50;4.07;;;;;;;17.46;92.41;97562.53;6244976;28;20230;-54
2023/07/05 05:52:35;;;;;;;6.07;4.07;;;;;;;17.35;91.83;97525.25;6245031;28;20615;-56
2023/07/05 05:55:38;;;;;;;7.53;3.80;;;;;;;17.65;92.10;97567.16;6246646;28;20322;-56
2023/07/05 05:58:40;;;;;;;5.00;4.30;;;;;;;17.58;91.76;97537.06;6245018;28;20318;-54
2023/07/05 06:01:44;;;;;;;4.90;4.03;;;;;;;17.89;90.96;97561.72;6243065;28;20239;-54
2023/07/05 06:04:48;;;;;;;4.97;4.00;;;;;;;17.99;90.78;97556.19;6245929;28;20254;-55
2023/07/05 06:07:50;;;;;;;3.53;3.10;;;;;;;17.99;90.41;97554.28;6245376;28;20243;-52
2023/07/05 06:10:57;;;;;;;5.70;3.93;;;;;;;18.16;90.36;97579.91;6240588;28;20239;-55
2023/07/05 06:13:59;;;;;;;3.93;3.53;;;;;;;18.28;90.27;97570.28;6244632;28;20227;-55
2023/07/05 06:17:02;;;;;;;5.03;3.93;;;;;;;18.42;88.61;97573.03;6243137;28;20298;-54
2023/07/05 06:20:06;;;;;;;4.43;3.93;;;;;;;18.59;87.41;97571.69;6243518;28;20887;-54
2023/07/05 06:23:13;;;;;;;4.87;4.37;;;;;;;18.68;87.15;97559.09;6241206;28;20219;-54
2023/07/05 06:26:15;;;;;;;4.77;4.13;;;;;;;18.97;84.94;97569.69;6246182;28;20231;-54
2023/07/05 06:29:17;;;;;;;4.50;3.67;;;;;;;19.07;83.11;97569.47;6242343;28;20227;-54
2023/07/05 06:32:19;;;;;;;6.17;4.57;;;;;;;19.14;82.02;97579.88;6240907;28;20224;-55
2023/07/05 06:35:21;;;;;;;7.07;4.40;;;;;;;19.17;81.37;97571.97;6235769;28;20232;-54
2023/07/05 06:38:24;;;;;;;4.83;3.93;;;;;;;19.20;81.40;97570.56;6246609;28;20231;-54
2023/07/05 06:41:26;;;;;;;5.10;4.17;;;;;;;19.26;81.90;97572.06;6244036;28;20231;-54
2023/07/05 06:44:28;;;;;;;4.60;3.80;;;;;;;19.31;82.18;97575.50;6240852;28;20790;-55
2023/07/05 06:47:30;;;;;;;3.73;3.43;;;;;;;19.38;82.44;97575.06;6241264;28;20231;-55
2023/07/05 06:50:33;;;;;;;4.60;3.97;;;;;;;19.46;83.27;97574.38;6241962;28;20251;-54
2023/07/05 06:53:35;;;;;;;6.00;4.53;;;;;;;19.53;83.34;97573.97;6242276;28;20285;-54
2023/07/05 06:56:40;;;;;;;5.07;4.13;;;;;;;19.61;83.38;97581.41;6243361;28;20224;-53
2023/07/05 06:59:44;;;;;;;4.50;4.07;;;;;;;19.69;83.58;97575.25;6240058;28;20230;-55
2023/07/05 07:02:46;;;;;;;4.50;4.10;;;;;;;19.74;83.26;97574.34;6244511;28;20770;-53
2023/07/05 07:05:59;;;;;;;5.13;4.27;;;;;;;19.78;83.45;97578.06;6242638;28;20677;-54
2023/07/05 07:09:05;;;;;;;5.37;4.27;;;;;;;19.80;83.48;97581.25;6239689;28;20223;-51
2023/07/05 07:12:10;;;;;;;5.10;4.53;;;;;;;19.81;84.13;97570.13;6240454;28;20570;-54
2023/07/05 07:15:12;;;;;;;4.80;4.30;;;;;;;19.83;83.88;97578.72;6239554;28;20251;-53
2023/07/05 07:18:14;;;;;;;5.07;4.30;;;;;;;19.72;83.85;97566.56;6243115;28;20794;-54
2023/07/05 07:21:18;;;;;;;5.70;4.20;;;;;;;19.76;82.87;97574.88;6240862;28;20760;-54
2023/07/05 07:24:20;;;;;;;4.43;4.03;;;;;;;19.78;83.22;97586.94;6239671;28;20692;-54
2023/07/05 07:27:22;;;;;;;4.87;4.30;;;;;;;19.85;83.61;97581.13;6242082;28;20601;-54
2023/07/05 07:30:25;;;;;;;4.60;4.10;;;;;;;19.91;83.96;97579.13;6240481;28;20233;-53
2023/07/05 07:33:27;;;;;;;5.77;4.03;;;;;;;20.01;84.63;97574.28;6246382;28;20971;-54
2023/07/05 07:36:36;;;;;;;4.57;4.07;;;;;;;20.12;84.56;97566.72;6239455;28;20273;-53
2023/07/05 07:39:43;;;;;;;4.97;4.00;;;;;;;20.13;83.16;97557.50;6240917;28;20227;-53
2023/07/05 07:42:46;;;;;;;5.70;4.40;;;;;;;20.26;81.05;97563.97;6242373;28;20314;-53
2023/07/05 07:45:48;;;;;;;4.57;3.67;;;;;;;20.35;79.55;97568.34;6241092;28;20234;-54
2023/07/05 07:48:52;;;;;;;4.90;4.30;;;;;;;20.41;79.54;97576.34;6239562;28;20652;-53
2023/07/05 07:51:55;;;;;;;4.77;3.97;;;;;;;20.46;77.56;97573.50;6246478;28;20646;-53
2023/07/05 07:54:57;;;;;;;4.60;3.93;;;;;;;20.63;76.54;97579.03;6244915;28;20600;-54
2023/07/05 07:57:59;;;;;;;8.37;4.23;;;;;;;20.76;76.69;97561.94;6243792;28;20235;-54
2023/07/05 08:01:17;;;;;;;6.67;4.87;;;;;;;21.11;66.16;97572.91;6240323;28;20378;-52
2023/07/05 08:04:19;;;;;;;8.07;4.97;;;;;;;21.38;67.44;97564.59;6241573;28;20370;-54
2023/07/05 08:07:22;;;;;;;6.13;4.57;;;;;;;21.47;70.85;97567.31;6241000;28;20224;-53
2023/07/05 08:10:27;;;;;;;4.83;4.03;;;;;;;21.50;71.94;97571.31;6241593;28;20956;-54
2023/07/05 08:13:30;;;;;;;5.70;4.47;;;;;;;21.55;72.25;97573.88;6240424;28;20246;-53
2023/07/05 08:16:32;;;;;;;6.57;5.07;;;;;;;21.62;68.32;97572.31;6241132;28;20302;-58
2023/07/05 08:19:35;;;;;;;8.17;5.00;;;;;;;21.66;69.42;97571.66;6238221;28;20326;-54
2023/07/05 08:22:37;;;;;;;6.83;4.27;;;;;;;21.82;70.78;97570.09;6240512;28;20743;-53
2023/07/05 08:25:39;;;;;;;6.30;4.77;;;;;;;21.83;69.26;97556.22;6234508;28;20246;-54
2023/07/05 08:28:42;;;;;;;8.18;5.45;;;;;;;22.02;70.97;97576.81;6240893;28;20529;-53
2023/07/05 08:31:46;;;;;;;6.40;5.20;;;;;;;22.33;64.27;97572.06;6238340;28;20310;-53
2023/07/05 08:34:51;;;;;;;6.60;4.78;;;;;;;22.39;66.76;97580.81;6239256;28;20234;-53
2023/07/05 08:37:53;;;;;;;7.80;5.10;;;;;;;22.39;66.10;97548.25;6243372;28;20231;-53
2023/07/05 08:41:05;;;;;;;7.33;4.40;;;;;;;22.66;68.42;97575.03;6239678;28;20231;-54
2023/07/05 08:44:37;;;;;;;6.78;4.53;;;;;;;22.74;68.69;97556.31;6243222;28;20362;-53
2023/07/05 08:47:48;;;;;;;5.00;4.35;;;;;;;22.84;64.46;97554.03;6240275;28;20231;-53
2023/07/05 08:50:55;;;;;;;5.53;4.38;;;;;;;22.96;66.72;97566.22;6238486;28;20324;-54
2023/07/05 08:54:16;;;;;;;7.07;5.20;;;;;;;23.14;66.07;97573.16;6240395;28;20227;-54
2023/07/05 08:57:27;;;;;;;5.47;4.20;;;;;;;23.41;66.16;97566.47;6242194;28;20219;-53
2023/07/05 09:00:45;;;;;;;4.53;4.10;;;;;;;23.71;65.05;97561.06;6241994;28;20227;-53
2023/07/05 09:03:47;;;;;;;5.63;4.43;;;;;;;23.81;65.73;97544.34;6239489;28;20302;-55
2023/07/05 09:06:57;;;;;;;5.20;3.90;;;;;;;24.15;61.14;97548.72;6233851;28;20231;-55
2023/07/05 09:10:10;;;;;;;5.38;3.85;;;;;;;24.40;64.60;97536.81;6240275;28;20573;-54
2023/07/05 09:13:15;;;;;;;4.30;3.65;;;;;;;24.47;65.42;97541.69;6240117;28;20285;-53
2023/07/05 09:16:39;;;;;;;5.20;3.67;;;;;;;24.61;63.49;97539.47;6234827;28;20231;-52
2023/07/05 09:19:56;;;;;;;9.40;3.78;;;;;;;24.78;63.59;97537.69;6239905;28;20230;-53
2023/07/05 09:23:01;;;;;;;6.40;3.95;;;;;;;24.88;64.98;97531.81;6246028;28;20239;-65
2023/07/05 09:26:28;;;;;;;6.40;3.65;;;;;;;25.00;62.20;97539.22;6245984;28;20246;-56
2023/07/05 09:29:46;;;;;;;4.40;3.50;;;;;;;25.12;56.88;97539.22;6245040;28;20739;-57
2023/07/05 09:33:11;;;;;;;5.05;4.15;;;;;;;25.06;56.39;97532.38;6249390;28;20377;-50
2023/07/05 09:36:24;;;;;;;5.20;3.50;;;;;;;25.00;59.49;97526.38;6247179;28;20597;-60
2023/07/05 09:39:41;;;;;;;6.18;3.97;;;;;;;24.87;62.25;97531.00;6245221;28;20219;-56
2023/07/05 09:42:54;;;;;;;3.65;3.35;;;;;;;24.89;54.52;97526.03;6242387;28;20258;-53
2023/07/05 09:46:00;;;;;;;7.57;3.50;;;;;;;25.01;57.90;97535.34;6241987;28;20322;-59
2023/07/05 09:49:10;;;;;;;7.22;3.47;;;;;;;24.84;58.89;97498.22;6240009;28;20583;-58
2023/07/05 09:52:15;;;;;;;4.10;3.35;;;;;;;25.14;53.46;97535.03;6246472;28;20716;-55
2023/07/05 09:55:20;;;;;;;6.93;3.90;;;;;;;25.21;50.30;97532.53;6243316;28;20233;-60
2023/07/05 09:58:24;;;;;;;3.92;3.30;;;;;;;25.46;49.95;97525.13;6242994;28;20307;-54
2023/07/05 10:01:27;;;;;;;4.88;3.85;;;;;;;25.69;47.95;97524.66;6242471;28;20721;-56
2023/07/05 10:04:31;;;;;;;5.15;3.20;;;;;;;25.76;50.20;97524.88;6242894;28;20227;-55
2023/07/05 10:07:35;;;;;;;4.03;3.45;;;;;;;25.70;49.35;97509.88;6242936;28;20223;-54
2023/07/05 10:10:40;;;;;;;6.03;3.30;;;;;;;25.77;49.34;97493.75;6247000;28;20716;-54
2023/07/05 10:13:42;;;;;;;4.88;3.33;;;;;;;25.91;47.98;97507.81;6242067;28;20675;-54
2023/07/05 10:16:49;;;;;;;5.35;3.67;;;;;;;26.14;48.36;97518.16;6246253;28;20231;-55
2023/07/05 10:19:53;;;;;;;4.82;3.80;;;;;;;26.27;47.74;97521.66;6244095;28;20712;-55
2023/07/05 10:23:04;;;;;;;4.00;3.15;;;;;;;26.26;49.97;97515.41;6243943;28;20219;-55
2023/07/05 10:26:07;;;;;;;4.47;3.55;;;;;;;26.32;47.69;97521.41;6246068;28;20333;-55
2023/07/05 10:29:10;;;;;;;4.75;3.97;;;;;;;26.30;48.11;97515.47;6245004;28;20235;-56
2023/07/05 10:32:18;;;;;;;16.20;5.05;;;;;;;26.49;46.46;97500.03;6238423;28;20224;-55
2023/07/05 10:35:26;;;;;;;4.25;3.65;;;;;;;26.60;45.75;97507.72;6232717;28;20239;-54
2023/07/05 10:38:46;;;;;;;4.28;3.70;;;;;;;26.70;47.09;97496.28;6244051;28;20607;-55
2023/07/05 10:41:51;;;;;;;5.10;3.28;;;;;;;26.82;45.21;97496.19;6242906;28;20232;-55
2023/07/05 10:44:55;;;;;;;5.78;4.10;;;;;;;26.92;45.44;97492.13;6248721;28;20231;-55
2023/07/05 10:47:57;;;;;;;7.88;4.05;;;;;;;26.88;44.51;97485.78;6243511;28;20608;-55
2023/07/05 10:50:59;;;;;;;7.97;3.90;;;;;;;26.88;47.77;97480.31;6241591;28;20231;-54
2023/07/05 10:54:24;;;;;;;4.32;3.92;;;;;;;26.76;47.40;97483.94;6242786;28;20412;-52
2023/07/05 10:57:34;;;;;;;5.68;3.30;;;;;;;26.64;46.38;97481.28;6250429;28;20220;-46
2023/07/05 11:00:39;;;;;;;5.35;4.13;;;;;;;26.49;48.76;97472.72;6243220;28;20319;-50
2023/07/05 11:04:21;;;;;;;5.57;3.75;;;;;;;26.20;48.37;97434.84;6241863;28;20731;-47
2023/07/05 11:07:25;;;;;;;4.25;3.72;;;;;;;26.26;48.18;97452.59;6243429;28;20230;-47
2023/07/05 11:10:32;;;;;;;5.55;4.05;;;;;;;26.33;49.63;97455.50;6242490;28;20601;-49
2023/07/05 11:13:35;;;;;;;4.38;3.40;;;;;;;26.37;47.02;97444.66;6244434;28;20246;-48
2023/07/05 11:16:39;;;;;;;4.03;3.45;;;;;;;26.40;47.89;97444.78;6241160;28;20270;-50
2023/07/05 11:19:42;;;;;;;5.82;3.60;;;;;;;26.24;52.57;97443.94;6247622;28;20353;-46
2023/07/05 11:22:45;;;;;;;3.83;3.42;;;;;;;26.12;51.04;97446.75;6242558;28;20244;-50
2023/07/05 11:26:00;;;;;;;5.07;3.60;;;;;;;25.80;53.64;97441.19;6242233;28;20235;-50
2023/07/05 11:29:31;;;;;;;5.05;3.28;;;;;;;25.55;55.20;97429.53;6241606;28;20247;-48
2023/07/05 11:33:16;;;;;;;3.67;3.10;;;;;;;25.32;55.02;97433.91;6242315;28;20231;-48
2023/07/05 11:36:28;;;;;;;3.30;2.97;;;;;;;25.09;56.68;97444.53;6243076;28;20322;-50
2023/07/05 11:39:31;;;;;;;5.18;3.50;;;;;;;24.55;59.12;97475.47;6245517;28;20227;-50
2023/07/05 11:42:37;;;;;;;3.35;2.70;;;;;;;24.34;46.46;97477.44;6238663;28;20224;-47
2023/07/05 11:45:48;;;;;;;3.13;2.17;;;;;;;24.00;46.73;97503.06;6238619;28;20877;-45
2023/07/05 11:48:50;;;;;;;4.50;2.35;;;;;;;23.50;49.02;97521.00;6243145;28;20247;-47
2023/07/05 11:52:19;;;;;;;3.35;2.40;;;;;;;22.42;55.48;97553.06;6241993;28;20235;-46
2023/07/05 11:55:26;;;;;;;3.63;2.23;;;;;;;21.38;59.83;97570.03;6239604;28;20247;-46
2023/07/05 11:58:35;;;;;;;6.27;2.27;;;;;;;20.42;66.48;97621.22;6242246;28;20232;-45
2023/07/05 12:01:39;;;;;;;11.20;3.57;;;;;;;19.14;76.52;97659.00;6241558;28;20242;-44
2023/07/05 12:04:42;;;;;;;5.30;2.90;;;;;;;18.25;79.40;97648.28;6238153;28;20499;-48
2023/07/05 12:07:55;;;;;;;7.87;3.53;;;;;;;17.69;83.42;97646.31;6241451;28;20246;-47
2023/07/05 12:15:58;;;;;;;4.07;2.30;;;;;;;16.81;91.23;97572.19;6238841;28;20235;-49
2023/07/05 12:19:05;;;;;;;5.83;3.00;;;;;;;16.68;93.45;97552.88;6240454;28;20223;-45
2023/07/05 12:22:14;;;;;;;8.23;3.13;;;;;;;16.51;93.11;97534.50;6237256;28;20246;-45
2023/07/05 12:25:19;;;;;;;7.23;3.27;;;;;;;16.71;94.94;97557.72;6238044;28;20719;-46
2023/07/05 12:28:24;;;;;;;7.97;4.03;;;;;;;16.47;95.48;97535.34;6242847;28;20241;-47
2023/07/05 12:31:27;;;;;;;9.87;3.60;;;;;;;16.73;98.33;97568.19;6240723;28;20231;-48
2023/07/05 12:34:29;;;;;;;5.33;3.00;;;;;;;16.72;97.73;97550.47;6239366;28;20272;-46
2023/07/05 12:37:33;;;;;;;3.40;2.10;;;;;;;16.62;97.89;97532.50;6241788;28;20219;-46
2023/07/05 12:40:42;;;;;;;5.83;2.90;;;;;;;16.79;98.58;97547.44;6241227;28;20239;-45
2023/07/05 12:43:45;;;;;;;4.17;2.50;;;;;;;16.92;99.40;97547.56;6243505;28;21037;-47
2023/07/05 12:46:48;;;;;;;5.23;3.00;;;;;;;17.00;100.00;97557.69;6236974;28;20267;-46
2023/07/05 12:50:03;;;;;;;6.00;3.07;;;;;;;17.08;100.00;97567.03;6241610;28;20370;-48
2023/07/05 12:53:12;;;;;;;6.43;3.17;;;;;;;17.22;100.00;97567.13;6240157;28;20725;-47
2023/07/05 12:56:18;;;;;;;6.43;3.17;;;;;;;17.25;100.00;97570.06;6245962;28;20215;-49
2023/07/05 12:59:32;;;;;;;7.67;2.80;;;;;;;17.28;100.00;97558.69;6243217;28;20709;-48
2023/07/05 13:02:49;;;;;;;4.87;3.00;;;;;;;17.36;100.00;97535.72;6247487;28;20237;-47
2023/07/05 13:05:52;;;;;;;4.83;2.73;;;;;;;17.46;100.00;97519.44;6257002;28;20225;-48
2023/07/05 13:08:57;;;;;;;4.77;2.20;;;;;;;17.43;100.00;97516.53;6245434;28;20237;-46
2023/07/05 13:12:07;;;;;;;4.33;2.27;;;;;;;17.51;100.00;97502.41;6245275;28;20239;-46
2023/07/05 13:15:09;;;;;;;2.30;2.10;;;;;;;17.51;100.00;97492.44;6246739;28;20703;-49
2023/07/05 13:18:20;;;;;;;3.03;2.00;;;;;;;17.63;100.00;97500.06;6247468;28;20406;-46
2023/07/05 13:21:23;;;;;;;4.43;2.40;;;;;;;17.54;100.00;97480.28;6242779;28;20228;-46
2023/07/05 13:24:28;;;;;;;3.10;2.33;;;;;;;17.64;100.00;97488.22;6249621;28;20241;-47
2023/07/05 13:27:34;;;;;;;3.70;2.23;;;;;;;17.74;100.00;97493.50;6245364;28;20705;-47
2023/07/05 13:30:43;;;;;;;3.80;2.53;;;;;;;17.81;100.00;97495.81;6243479;28;20223;-47
2023/07/05 13:33:45;;;;;;;3.80;2.40;;;;;;;17.77;99.86;97492.09;6244206;28;20236;-47
2023/07/05 13:36:52;;;;;;;3.90;2.60;;;;;;;17.67;99.99;97476.03;6245990;28;20361;-48
2023/07/05 13:39:57;;;;;;;5.00;3.03;;;;;;;17.72;99.79;97508.31;6247757;28;20705;-47
2023/07/05 13:43:00;;;;;;;3.77;2.50;;;;;;;17.68;99.95;97504.59;6243449;28;20452;-46
2023/07/05 13:46:06;;;;;;;4.43;2.30;;;;;;;17.43;100.00;97468.03;6242781;28;20317;-48
2023/07/05 13:49:09;;;;;;;3.60;2.73;;;;;;;17.56;100.00;97496.94;6238759;28;20242;-51
2023/07/05 13:52:18;;;;;;;2.80;2.20;;;;;;;17.48;100.00;97502.97;6246658;28;21049;-48
2023/07/05 13:55:23;;;;;;;2.77;2.03;;;;;;;17.44;100.00;97502.00;6245224;28;20263;-45
2023/07/05 13:58:25;;;;;;;2.53;1.70;;;;;;;17.49;100.00;97501.91;6240777;28;20870;-46
2023/07/05 14:01:27;;;;;;;2.00;1.90;;;;;;;17.48;100.00;97493.00;6239772;28;20585;-50
2023/07/05 14:04:29;;;;;;;2.53;1.97;;;;;;;17.55;100.00;97508.81;6242421;28;20281;-51
2023/07/05 14:07:31;;;;;;;2.90;2.03;;;;;;;17.57;100.00;97509.31;6242499;28;20302;-49
2023/07/05 14:10:35;;;;;;;3.43;2.10;;;;;;;17.62;100.00;97513.84;6243881;28;20243;-51
2023/07/05 14:13:37;;;;;;;2.27;2.07;;;;;;;17.64;100.00;97512.47;6241295;28;20231;-48
2023/07/05 14:16:40;;;;;;;2.10;1.87;;;;;;;17.63;100.00;97527.00;6241607;28;20573;-48
2023/07/05 14:19:44;;;;;;;1.83;1.70;;;;;;;17.65;100.00;97514.06;6242020;28;20730;-47
2023/07/05 14:22:46;;;;;;;2.20;2.00;;;;;;;17.68;100.00;97502.69;6243093;28;20238;-51
2023/07/05 14:25:51;;;;;;;2.57;2.10;;;;;;;17.77;100.00;97503.66;6242288;28;20242;-48
2023/07/05 14:28:54;;;;;;;2.93;2.10;;;;;;;17.82;100.00;97507.38;6242184;28;20238;-49
2023/07/05 14:31:56;;;;;;;2.47;2.07;;;;;;;17.85;100.00;97509.50;6240976;28;20231;-57
2023/07/05 14:34:58;;;;;;;3.97;2.17;;;;;;;18.01;100.00;97506.25;6240420;28;20269;-56
2023/07/05 14:38:00;;;;;;;3.47;2.33;;;;;;;17.99;100.00;97500.38;6242458;28;20212;-56
2023/07/05 14:41:03;;;;;;;3.20;2.43;;;;;;;18.19;100.00;97514.63;6243338;28;20234;-56